createdAt,value
2023-01-13T00:03:53.694Z,52.2
2023-01-13T00:09:11.885Z,51.7
2023-01-13T00:14:30.086Z,52
2023-01-13T00:19:48.603Z,52.1
2023-01-13T00:25:06.515Z,51.8
2023-01-13T00:30:24.996Z,51.8
2023-01-13T00:35:43.520Z,50.8
2023-01-13T00:41:02.492Z,51
2023-01-13T00:46:21.214Z,51
2023-01-13T00:51:39.708Z,51.1
2023-01-13T00:56:58.218Z,51.2
2023-01-13T01:02:16.637Z,52.2
2023-01-13T01:07:35.468Z,51.8
2023-01-13T01:12:53.946Z,51.3
2023-01-13T01:18:12.178Z,51.5
2023-01-13T01:23:30.682Z,51.3
2023-01-13T01:28:49.159Z,52.1
2023-01-13T01:34:07.923Z,52.8
2023-01-13T01:39:25.869Z,51.9
2023-01-13T01:44:44.344Z,51.4
2023-01-13T01:50:03.636Z,52.2
2023-01-13T01:55:22.608Z,52.3
2023-01-13T02:00:41.418Z,51.3
2023-01-13T02:06:00.193Z,51.5
2023-01-13T02:11:18.980Z,51.9
2023-01-13T02:16:37.279Z,51.5
2023-01-13T02:21:55.788Z,52.3
2023-01-13T02:27:14.899Z,51.9
2023-01-13T02:32:33.876Z,51.1
2023-01-13T02:37:52.642Z,52
2023-01-13T02:43:11.155Z,51.8
2023-01-13T02:48:29.928Z,52.1
2023-01-13T02:53:48.410Z,52.4
2023-01-13T02:59:06.922Z,52.5
2023-01-13T03:04:25.708Z,51.7
2023-01-13T03:09:44.206Z,51.2
2023-01-13T03:15:02.605Z,52.3
2023-01-13T03:20:21.131Z,51.4
2023-01-13T03:25:39.387Z,52.3
2023-01-13T03:30:57.846Z,51.2
2023-01-13T03:36:16.105Z,51.3
2023-01-13T03:41:34.641Z,51.1
2023-01-13T03:46:53.488Z,51.7
2023-01-13T03:52:11.706Z,51.3
2023-01-13T03:57:30.223Z,50.5
2023-01-13T04:02:49.060Z,51.6
2023-01-13T04:08:07.851Z,51.5
2023-01-13T04:13:26.606Z,51.4
2023-01-13T04:18:45.145Z,51
2023-01-13T04:24:03.670Z,51.1
2023-01-13T04:29:21.926Z,50.8
2023-01-13T04:34:40.185Z,51.5
2023-01-13T04:39:58.684Z,51.8
2023-01-13T04:45:17.209Z,51.6
2023-01-13T04:50:36.003Z,51.1
2023-01-13T04:55:54.243Z,50.7
2023-01-13T05:01:12.540Z,50.6
2023-01-13T05:06:31.209Z,50.7
2023-01-13T05:11:50.021Z,51
2023-01-13T05:17:08.815Z,50.5
2023-01-13T05:22:27.356Z,51
2023-01-13T05:27:46.132Z,51.3
2023-01-13T05:33:04.914Z,50.8
2023-01-13T05:38:23.614Z,50.6
2023-01-13T05:43:41.908Z,50.3
2023-01-13T05:49:00.121Z,50.3
2023-01-13T05:54:18.619Z,50.5
2023-01-13T05:59:37.365Z,50.4
2023-01-13T06:04:40.126Z,51.3
2023-01-13T06:09:58.386Z,50.5
2023-01-13T06:15:16.692Z,50.8
2023-01-13T06:20:35.156Z,50.9
2023-01-13T06:25:53.951Z,51.4
2023-01-13T06:31:12.755Z,51.3
2023-01-13T06:36:31.134Z,51
2023-01-13T06:41:49.669Z,50.6
2023-01-13T06:47:07.903Z,50.4
2023-01-13T06:52:26.682Z,49.8
2023-01-13T06:57:45.477Z,50.3
2023-01-13T07:02:48.757Z,49.7
2023-01-13T07:08:07.368Z,49.8
2023-01-13T07:13:29.006Z,50.6
2023-01-13T07:18:47.292Z,50.5
2023-01-13T07:24:05.239Z,50
2023-01-13T07:29:23.766Z,51
2023-01-13T07:34:42.580Z,50.2
2023-01-13T07:40:00.867Z,50.1
2023-01-13T07:45:19.657Z,50.5
2023-01-13T07:50:37.869Z,50.6
2023-01-13T07:55:56.368Z,50
2023-01-13T08:01:15.112Z,50.4
2023-01-13T08:06:33.782Z,50.3
2023-01-13T08:11:52.577Z,50.3
2023-01-13T08:17:11.090Z,50.6
2023-01-13T08:22:29.612Z,49.8
2023-01-13T08:27:49.564Z,50.8
2023-01-13T08:33:10.787Z,50.4
2023-01-13T08:38:29.176Z,50.6
2023-01-13T08:43:48.198Z,49.4
2023-01-13T08:49:07.638Z,50.5
2023-01-13T08:54:27.432Z,50.1
2023-01-13T08:59:45.723Z,50.5
2023-01-13T09:05:08.246Z,49.7
2023-01-13T09:10:30.000Z,50.3
2023-01-13T09:15:48.695Z,46.5
2023-01-13T09:21:07.239Z,44.5
2023-01-13T09:26:26.023Z,47.6
2023-01-13T09:31:45.129Z,47.9
2023-01-13T09:37:03.628Z,47.9
2023-01-13T09:42:27.703Z,48.6
2023-01-13T09:47:49.623Z,48.4
2023-01-13T09:53:09.006Z,49.1
2023-01-13T09:58:27.521Z,46.9
2023-01-13T10:03:47.398Z,48.5
2023-01-13T10:09:05.827Z,48
2023-01-13T10:14:09.732Z,48.3
2023-01-13T10:19:31.289Z,48.8
2023-01-13T10:24:49.387Z,48.1
2023-01-13T10:30:07.883Z,48.2
2023-01-13T10:35:26.118Z,48.9
2023-01-13T10:40:44.955Z,48.3
2023-01-13T10:46:03.884Z,48.3
2023-01-13T10:51:22.844Z,48.4
2023-01-13T10:56:41.393Z,49.3
2023-01-13T11:02:00.211Z,49.2
2023-01-13T11:07:18.731Z,49.3
2023-01-13T11:12:37.286Z,48.6
2023-01-13T11:17:55.549Z,48.5
2023-01-13T11:23:14.117Z,49.2
2023-01-13T11:28:32.468Z,49.3
2023-01-13T11:33:50.961Z,48.6
2023-01-13T11:39:09.917Z,48.6
2023-01-13T11:44:12.543Z,49.1
2023-01-13T11:49:31.894Z,49.2
2023-01-13T11:54:50.020Z,48.6
2023-01-13T12:00:08.242Z,49.3
2023-01-13T12:05:27.191Z,49.3
2023-01-13T12:10:45.340Z,48.6
2023-01-13T12:16:03.987Z,49.1
2023-01-13T12:21:22.361Z,47.4
2023-01-13T12:26:40.894Z,47.7
2023-01-13T12:31:59.458Z,48.7
2023-01-13T12:37:18.047Z,48.1
2023-01-13T12:42:36.290Z,48.9
2023-01-13T12:47:54.854Z,48.5
2023-01-13T12:53:13.267Z,48.2
2023-01-13T12:58:32.033Z,48.2
2023-01-13T13:03:50.331Z,49.1
2023-01-13T13:09:09.101Z,48.2
2023-01-13T13:14:27.922Z,48.1
2023-01-13T13:19:46.476Z,48.4
2023-01-13T13:25:05.122Z,49.6
2023-01-13T13:30:23.521Z,49
2023-01-13T13:35:41.777Z,48.5
2023-01-13T13:41:00.271Z,48.6
2023-01-13T13:46:18.845Z,49.3
2023-01-13T13:51:40.273Z,49.3
2023-01-13T14:02:21.847Z,48.5
2023-01-13T14:07:40.468Z,48.8
2023-01-13T14:12:58.943Z,48.5
2023-01-13T14:18:17.711Z,48.7
2023-01-13T14:23:36.016Z,49
2023-01-13T14:28:54.398Z,48.6
2023-01-13T14:34:33.721Z,48.6
2023-01-13T14:39:51.968Z,48.6
2023-01-13T14:45:10.188Z,48.5
2023-01-13T14:50:28.335Z,48.5
2023-01-13T14:55:46.833Z,48.8
2023-01-13T15:01:05.409Z,49.5
2023-01-13T15:06:23.394Z,48.7
2023-01-13T15:11:42.216Z,48.7
2023-01-13T15:17:00.825Z,48.9
2023-01-13T15:22:19.399Z,48.9
2023-01-13T15:27:37.873Z,49.3
2023-01-13T15:32:56.707Z,49
2023-01-13T15:38:15.331Z,48.7
2023-01-13T15:43:33.562Z,49.1
2023-01-13T15:54:19.504Z,49.2
2023-01-13T15:59:38.291Z,48.9
2023-01-13T16:04:57.132Z,49.5
2023-01-13T16:10:15.643Z,48.8
2023-01-13T16:15:34.202Z,49.1
2023-01-13T16:20:52.612Z,49
2023-01-13T16:26:11.123Z,48.5
2023-01-13T16:31:29.777Z,48.4
2023-01-13T16:36:48.407Z,48.6
2023-01-13T16:42:06.605Z,48.4
2023-01-13T16:47:25.289Z,48.5
2023-01-13T16:52:43.785Z,48.1
2023-01-13T16:58:02.464Z,48.7
2023-01-13T17:03:20.721Z,47.7
2023-01-13T17:08:39.236Z,47.9
2023-01-13T17:13:57.488Z,48
2023-01-13T17:19:15.742Z,48.8
2023-01-13T17:24:33.977Z,48.9
2023-01-13T17:29:52.340Z,48.8
2023-01-13T17:35:13.687Z,48.3
2023-01-13T17:40:31.995Z,48.1
2023-01-13T17:45:50.358Z,48.9
2023-01-13T17:51:08.897Z,48.4
2023-01-13T17:56:27.488Z,48.8
2023-01-13T18:01:46.302Z,48.9
2023-01-13T18:07:04.502Z,48.9
2023-01-13T18:12:24.250Z,48.4
2023-01-13T18:17:43.052Z,48.4
2023-01-13T18:23:02.909Z,48.4
2023-01-13T18:28:21.159Z,48.9
2023-01-13T18:33:39.531Z,48.6
2023-01-13T18:38:59.147Z,48.6
2023-01-13T18:44:17.932Z,48.9
2023-01-13T18:49:41.696Z,48.6
2023-01-13T18:54:59.942Z,48.7
2023-01-13T19:00:18.912Z,48.8
2023-01-13T19:05:37.386Z,49.4
2023-01-13T19:10:55.770Z,49.3
2023-01-13T19:16:14.745Z,49
2023-01-13T19:21:33.257Z,49.1
2023-01-13T19:26:52.233Z,49.5
2023-01-13T19:32:10.905Z,49.2
2023-01-13T19:37:29.441Z,48.7
2023-01-13T19:42:47.970Z,49.5
2023-01-13T19:48:06.754Z,48.7
2023-01-13T19:53:25.562Z,49.2
2023-01-13T19:58:44.325Z,48.9
2023-01-13T20:04:02.883Z,48.7
2023-01-13T20:09:21.934Z,48.7
2023-01-13T20:14:40.172Z,49.6
2023-01-13T20:19:58.443Z,49.8
2023-01-13T20:25:17.178Z,48.8
2023-01-13T20:30:35.568Z,49.5
2023-01-13T20:35:54.293Z,49.4
2023-01-13T20:41:13.317Z,49.7
2023-01-13T20:46:31.732Z,49.5
2023-01-13T20:51:49.747Z,49.2
2023-01-13T20:57:08.003Z,49.4
2023-01-13T21:02:10.334Z,49.6
2023-01-13T21:07:29.241Z,50.1
2023-01-13T21:12:48.007Z,49
2023-01-13T21:17:51.186Z,49
2023-01-13T21:23:09.686Z,48.8
2023-01-13T21:28:28.192Z,48.8
2023-01-13T21:33:47.713Z,50.1
2023-01-13T21:39:06.479Z,49.9
2023-01-13T21:44:24.712Z,50.2
2023-01-13T21:49:43.240Z,50
2023-01-13T21:55:02.023Z,50.4
2023-01-13T22:00:20.528Z,50
2023-01-13T22:05:39.182Z,50
2023-01-13T22:10:58.743Z,50
2023-01-13T22:16:17.424Z,50.8
2023-01-13T22:21:36.321Z,49.8
2023-01-13T22:26:55.084Z,50.7
2023-01-13T22:32:13.591Z,50.5
2023-01-13T22:37:32.407Z,50.8
2023-01-13T22:42:50.651Z,50.2
2023-01-13T22:48:09.162Z,51.4
2023-01-13T22:53:27.444Z,50.5
2023-01-13T22:58:45.937Z,50.3
2023-01-13T23:04:04.798Z,50.4
2023-01-13T23:09:23.435Z,51
2023-01-13T23:14:42.148Z,50.7
2023-01-13T23:20:05.380Z,51.2
2023-01-13T23:25:23.858Z,50.3
2023-01-13T23:30:42.562Z,50.3
2023-01-13T23:36:01.080Z,50.4
2023-01-13T23:41:19.803Z,51.1
2023-01-13T23:46:38.504Z,50.5
2023-01-13T23:51:57.025Z,50.9
2023-01-13T23:57:15.825Z,51
